createdAt,value
2022-08-21T00:01:55.234Z,6.55
2022-08-21T00:04:29.341Z,6.95
2022-08-21T00:06:59.558Z,6.88
2022-08-21T00:09:27.275Z,6.60
2022-08-21T00:11:55.017Z,6.60
2022-08-21T00:14:23.121Z,6.80
2022-08-21T00:16:51.206Z,6.88
2022-08-21T00:19:19.505Z,6.63
2022-08-21T00:21:49.540Z,6.80
2022-08-21T00:24:17.162Z,6.45
2022-08-21T00:26:45.164Z,6.55
2022-08-21T00:29:12.965Z,6.38
2022-08-21T00:31:41.494Z,6.53
2022-08-21T00:34:09.987Z,6.97
2022-08-21T00:36:38.508Z,6.95
2022-08-21T00:39:08.163Z,6.82
2022-08-21T00:41:39.123Z,6.82
2022-08-21T00:44:09.577Z,7.32
2022-08-21T00:46:38.640Z,6.90
2022-08-21T00:49:08.436Z,7.00
2022-08-21T00:51:53.212Z,7.00
2022-08-21T00:54:25.577Z,6.72
2022-08-21T00:57:04.469Z,6.90
2022-08-21T00:59:37.575Z,6.53
2022-08-21T01:02:08.314Z,7.00
2022-08-21T01:04:36.309Z,7.18
2022-08-21T01:07:04.353Z,7.10
2022-08-21T01:09:33.038Z,6.93
2022-08-21T01:12:01.384Z,6.85
2022-08-21T01:14:29.780Z,6.70
2022-08-21T01:16:58.972Z,6.53
2022-08-21T01:19:27.929Z,6.78
2022-08-21T01:21:56.134Z,7.32
2022-08-21T01:24:24.049Z,7.40
2022-08-21T01:26:53.140Z,7.22
2022-08-21T01:29:31.574Z,6.68
2022-08-21T01:32:04.213Z,7.10
2022-08-21T01:34:32.963Z,7.03
2022-08-21T01:37:00.803Z,6.72
2022-08-21T01:39:28.440Z,7.00
2022-08-21T01:41:56.072Z,6.63
2022-08-21T01:44:24.896Z,7.13
2022-08-21T01:46:53.635Z,7.00
2022-08-21T01:49:21.996Z,7.60
2022-08-21T01:51:50.013Z,6.97
2022-08-21T01:54:17.705Z,7.30
2022-08-21T01:56:48.477Z,6.47
2022-08-21T01:59:17.292Z,6.70
2022-08-21T02:01:45.213Z,6.57
2022-08-21T02:04:13.321Z,7.30
2022-08-21T02:06:41.791Z,7.38
2022-08-21T02:09:11.422Z,6.40
2022-08-21T02:11:42.474Z,6.63
2022-08-21T02:14:12.637Z,6.95
2022-08-21T02:16:44.740Z,7.40
2022-08-21T02:19:16.693Z,7.45
2022-08-21T02:21:44.375Z,6.70
2022-08-21T02:24:13.570Z,6.85
2022-08-21T02:26:41.401Z,7.13
2022-08-21T02:29:09.182Z,7.28
2022-08-21T02:31:37.244Z,7.25
2022-08-21T02:34:05.492Z,7.70
2022-08-21T02:36:33.484Z,7.68
2022-08-21T02:39:01.131Z,8.00
2022-08-21T02:41:29.443Z,7.35
2022-08-21T02:43:57.327Z,7.75
2022-08-21T02:46:25.012Z,7.35
2022-08-21T02:48:52.836Z,7.82
2022-08-21T02:51:21.221Z,7.72
2022-08-21T02:53:49.820Z,7.22
2022-08-21T02:56:21.239Z,8.05
2022-08-21T02:58:52.482Z,7.85
2022-08-21T03:01:22.799Z,7.53
2022-08-21T03:03:50.979Z,6.72
2022-08-21T03:06:22.337Z,7.50
2022-08-21T03:08:51.541Z,8.27
2022-08-21T03:11:21.702Z,7.35
2022-08-21T03:13:49.736Z,7.55
2022-08-21T03:16:17.593Z,7.85
2022-08-21T03:18:45.287Z,8.13
2022-08-21T03:21:14.080Z,7.47
2022-08-21T03:23:43.022Z,7.70
2022-08-21T03:26:12.036Z,7.90
2022-08-21T03:28:40.743Z,7.55
2022-08-21T03:31:09.683Z,7.43
2022-08-21T03:33:37.444Z,7.20
2022-08-21T03:36:08.470Z,7.25
2022-08-21T03:38:38.263Z,7.50
2022-08-21T03:41:08.734Z,7.70
2022-08-21T03:43:36.704Z,7.32
2022-08-21T03:46:06.805Z,7.85
2022-08-21T03:48:37.005Z,7.88
2022-08-21T03:51:05.033Z,7.88
2022-08-21T03:53:33.229Z,7.63
2022-08-21T03:56:00.850Z,7.22
2022-08-21T03:58:30.078Z,8.20
2022-08-21T04:01:00.309Z,8.38
2022-08-21T04:03:28.816Z,7.65
2022-08-21T04:05:57.210Z,7.70
2022-08-21T04:08:25.044Z,7.93
2022-08-21T04:10:56.259Z,8.30
2022-08-21T04:13:24.107Z,7.32
2022-08-21T04:15:52.174Z,7.25
2022-08-21T04:18:19.964Z,7.30
2022-08-21T04:20:52.171Z,7.45
2022-08-21T04:23:23.796Z,6.97
2022-08-21T04:25:54.418Z,7.65
2022-08-21T04:28:23.558Z,7.25
2022-08-21T04:30:57.930Z,7.57
2022-08-21T04:33:26.192Z,6.88
2022-08-21T04:35:53.976Z,7.07
2022-08-21T04:38:21.903Z,7.00
2022-08-21T04:40:51.593Z,7.03
2022-08-21T04:43:20.419Z,7.03
2022-08-21T04:45:50.266Z,7.40
2022-08-21T04:48:21.323Z,6.78
2022-08-21T04:50:52.428Z,7.07
2022-08-21T04:53:24.361Z,6.95
2022-08-21T04:55:54.600Z,7.43
2022-08-21T04:58:26.411Z,6.55
2022-08-21T05:00:58.971Z,6.78
2022-08-21T05:03:27.048Z,6.35
2022-08-21T05:05:55.460Z,6.55
2022-08-21T05:08:26.661Z,6.53
2022-08-21T05:10:59.677Z,6.35
2022-08-21T05:13:29.050Z,6.10
2022-08-21T05:15:56.766Z,6.30
2022-08-21T05:18:25.349Z,5.88
2022-08-21T05:20:53.465Z,6.50
2022-08-21T05:23:21.203Z,6.03
2022-08-21T05:25:49.033Z,6.05
2022-08-21T05:28:16.950Z,6.03
2022-08-21T05:30:45.128Z,6.43
2022-08-21T05:33:13.258Z,5.65
2022-08-21T05:35:41.481Z,5.65
2022-08-21T05:38:16.523Z,5.65
2022-08-21T05:40:46.797Z,6.20
2022-08-21T05:43:14.898Z,5.75
2022-08-21T05:45:44.349Z,5.80
2022-08-21T05:48:24.857Z,5.82
2022-08-21T05:50:53.509Z,6.32
2022-08-21T05:53:23.316Z,6.10
2022-08-21T05:55:52.301Z,5.93
2022-08-21T05:58:23.842Z,5.80
2022-08-21T06:00:53.863Z,5.35
2022-08-21T06:03:28.454Z,5.88
2022-08-21T06:05:57.490Z,6.20
2022-08-21T06:08:26.113Z,6.10
2022-08-21T06:10:55.806Z,5.30
2022-08-21T06:13:24.668Z,5.72
2022-08-21T06:16:16.168Z,5.40
2022-08-21T06:18:46.023Z,6.10
2022-08-21T06:21:14.596Z,5.70
2022-08-21T06:23:43.313Z,5.70
2022-08-21T06:26:14.403Z,5.75
2022-08-21T06:28:44.115Z,5.30
2022-08-21T06:31:18.545Z,6.15
2022-08-21T06:33:46.645Z,5.70
2022-08-21T06:36:15.100Z,5.82
2022-08-21T06:38:51.598Z,5.65
2022-08-21T06:41:22.518Z,6.63
2022-08-21T06:43:55.330Z,5.70
2022-08-21T06:46:24.297Z,6.00
2022-08-21T06:48:52.282Z,5.65
2022-08-21T06:51:20.040Z,5.95
2022-08-21T06:53:48.097Z,5.32
2022-08-21T06:56:16.207Z,5.93
2022-08-21T06:58:43.875Z,5.53
2022-08-21T07:01:12.541Z,5.78
2022-08-21T07:03:43.400Z,5.70
2022-08-21T07:06:12.511Z,5.93
2022-08-21T07:08:40.926Z,5.78
2022-08-21T07:11:22.084Z,5.55
2022-08-21T07:13:52.864Z,5.82
2022-08-21T07:16:21.659Z,5.65
2022-08-21T07:18:49.928Z,6.03
2022-08-21T07:21:20.699Z,5.60
2022-08-21T07:23:52.035Z,5.68
2022-08-21T07:26:23.568Z,5.90
2022-08-21T07:28:52.151Z,5.68
2022-08-21T07:31:22.383Z,5.18
2022-08-21T07:33:50.722Z,5.45
2022-08-21T07:36:18.584Z,5.85
2022-08-21T07:38:46.607Z,5.40
2022-08-21T07:41:22.700Z,5.45
2022-08-21T07:43:52.700Z,5.25
2022-08-21T07:46:21.671Z,5.40
2022-08-21T07:48:49.327Z,5.32
2022-08-21T07:51:19.056Z,4.55
2022-08-21T07:53:52.412Z,4.80
2022-08-21T07:56:21.074Z,4.88
2022-08-21T07:58:49.895Z,4.70
2022-08-21T08:01:18.584Z,4.47
2022-08-21T08:03:47.502Z,5.03
2022-08-21T08:06:17.579Z,4.45
2022-08-21T08:08:45.414Z,4.65
2022-08-21T08:11:16.328Z,4.38
2022-08-21T08:13:47.862Z,4.65
2022-08-21T08:16:16.582Z,4.20
2022-08-21T08:18:45.349Z,4.80
2022-08-21T08:21:14.358Z,4.32
2022-08-21T08:23:42.179Z,4.43
2022-08-21T08:26:09.952Z,4.10
2022-08-21T08:28:38.089Z,3.97
2022-08-21T08:31:06.076Z,4.38
2022-08-21T08:33:33.859Z,4.10
2022-08-21T08:36:07.979Z,3.95
2022-08-21T08:38:36.015Z,3.97
2022-08-21T08:41:30.690Z,3.78
2022-08-21T08:44:05.675Z,3.85
2022-08-21T08:46:40.412Z,3.80
2022-08-21T08:49:25.198Z,3.70
2022-08-21T08:51:58.565Z,3.45
2022-08-21T08:54:51.332Z,3.33
2022-08-21T08:57:23.819Z,4.20
2022-08-21T08:59:54.864Z,4.23
2022-08-21T09:02:24.398Z,3.47
2022-08-21T09:04:56.202Z,3.55
2022-08-21T09:07:41.225Z,3.00
2022-08-21T09:10:18.289Z,3.17
2022-08-21T09:13:17.276Z,3.72
2022-08-21T09:16:12.885Z,3.47
2022-08-21T09:18:49.624Z,3.35
2022-08-21T09:21:43.511Z,3.38
2022-08-21T09:24:29.027Z,3.67
2022-08-21T09:26:56.722Z,3.35
2022-08-21T09:29:30.565Z,3.50
2022-08-21T09:31:58.259Z,3.38
2022-08-21T09:34:32.329Z,3.65
2022-08-21T09:37:00.520Z,3.10
2022-08-21T09:39:32.094Z,3.53
2022-08-21T09:42:11.398Z,3.50
2022-08-21T09:44:44.331Z,3.50
2022-08-21T09:47:13.804Z,3.20
2022-08-21T09:49:44.994Z,2.92
2022-08-21T09:52:25.419Z,3.50
2022-08-21T09:54:57.354Z,3.40
2022-08-21T09:57:46.704Z,3.75
2022-08-21T10:00:31.288Z,3.75
2022-08-21T10:03:21.189Z,3.47
2022-08-21T10:06:09.555Z,3.75
2022-08-21T10:08:40.264Z,3.47
2022-08-21T10:11:12.649Z,3.30
2022-08-21T10:14:02.687Z,3.33
2022-08-21T10:16:52.242Z,4.82
2022-08-21T10:19:41.109Z,3.70
2022-08-21T10:22:39.349Z,3.90
2022-08-21T10:25:20.135Z,3.65
2022-08-21T10:28:19.202Z,3.17
2022-08-21T10:31:16.471Z,3.15
2022-08-21T10:34:09.716Z,3.40
2022-08-21T10:37:06.517Z,3.38
2022-08-21T10:40:16.620Z,3.35
2022-08-21T10:43:08.914Z,3.72
2022-08-21T10:45:57.955Z,4.00
2022-08-21T10:48:58.278Z,3.47
2022-08-21T10:51:41.045Z,3.70
2022-08-21T10:54:28.099Z,3.80
2022-08-21T10:57:06.782Z,4.07
2022-08-21T10:59:48.247Z,4.10
2022-08-21T11:02:34.134Z,3.90
2022-08-21T11:05:10.711Z,3.72
2022-08-21T11:07:49.641Z,4.03
2022-08-21T11:10:51.281Z,3.60
2022-08-21T11:13:31.206Z,3.70
2022-08-21T11:16:24.614Z,3.63
2022-08-21T11:19:06.802Z,5.47
2022-08-21T11:21:48.147Z,6.32
2022-08-21T11:24:41.135Z,4.00
2022-08-21T11:27:27.547Z,5.65
2022-08-21T11:30:00.943Z,4.13
2022-08-21T11:33:02.504Z,14.68
2022-08-21T11:35:33.766Z,3.90
2022-08-21T11:38:36.290Z,3.95
2022-08-21T11:41:37.090Z,3.90
2022-08-21T11:44:10.628Z,4.82
2022-08-21T11:46:54.223Z,3.60
2022-08-21T11:49:40.461Z,3.83
2022-08-21T11:52:23.607Z,3.47
2022-08-21T11:55:07.434Z,3.55
2022-08-21T12:00:37.237Z,3.67
2022-08-21T12:03:51.966Z,3.65
2022-08-21T12:06:47.067Z,3.40
2022-08-21T12:09:26.294Z,3.55
2022-08-21T12:12:02.932Z,3.30
2022-08-21T12:14:50.707Z,3.80
2022-08-21T12:17:25.252Z,3.28
2022-08-21T12:20:17.495Z,3.50
2022-08-21T12:23:19.260Z,3.60
2022-08-21T12:26:23.852Z,3.45
2022-08-21T12:28:52.078Z,3.30
2022-08-21T12:31:25.657Z,3.65
2022-08-21T12:34:00.403Z,3.70
2022-08-21T12:36:46.552Z,3.38
2022-08-21T12:39:24.512Z,3.70
2022-08-21T12:42:01.991Z,3.53
2022-08-21T12:44:38.699Z,3.45
2022-08-21T12:47:17.796Z,3.65
2022-08-21T12:50:11.095Z,3.92
2022-08-21T12:52:42.931Z,3.28
2022-08-21T12:55:25.982Z,3.50
2022-08-21T12:57:53.874Z,3.92
2022-08-21T13:00:26.179Z,3.90
2022-08-21T13:02:55.827Z,3.65
2022-08-21T13:05:34.489Z,3.70
2022-08-21T13:08:07.725Z,3.78
2022-08-21T13:10:37.580Z,3.38
2022-08-21T13:13:25.620Z,3.80
2022-08-21T13:16:02.804Z,3.80
2022-08-21T13:18:35.423Z,3.25
2022-08-21T13:21:11.965Z,3.88
2022-08-21T13:23:39.869Z,3.13
2022-08-21T13:26:33.892Z,3.72
2022-08-21T13:29:13.486Z,3.90
2022-08-21T13:31:47.317Z,3.50
2022-08-21T13:34:17.983Z,3.70
2022-08-21T13:36:48.054Z,3.50
2022-08-21T13:39:20.049Z,3.28
2022-08-21T13:41:51.064Z,3.33
2022-08-21T13:44:27.213Z,4.20
2022-08-21T13:46:55.995Z,3.30
2022-08-21T13:49:31.607Z,3.30
2022-08-21T13:51:59.756Z,3.63
2022-08-21T13:54:38.740Z,3.65
2022-08-21T13:57:24.957Z,3.58
2022-08-21T13:59:53.051Z,3.42
2022-08-21T14:02:24.931Z,3.60
2022-08-21T14:04:55.831Z,3.55
2022-08-21T14:07:40.502Z,3.13
2022-08-21T14:10:21.531Z,3.47
2022-08-21T14:12:55.586Z,3.50
2022-08-21T14:18:16.885Z,3.67
2022-08-21T14:20:44.956Z,3.60
2022-08-21T14:23:24.134Z,3.20
2022-08-21T14:25:51.871Z,3.28
2022-08-21T14:28:54.379Z,3.35
2022-08-21T14:31:31.844Z,3.67
2022-08-21T14:34:01.904Z,3.90
2022-08-21T14:36:29.677Z,3.42
2022-08-21T14:38:57.513Z,3.72
2022-08-21T14:41:28.634Z,3.28
2022-08-21T14:44:07.540Z,3.63
2022-08-21T14:46:51.172Z,3.22
2022-08-21T14:49:27.323Z,2.95
2022-08-21T14:51:58.722Z,3.40
2022-08-21T14:54:31.548Z,2.92
2022-08-21T14:57:18.201Z,3.40
2022-08-21T14:59:45.967Z,3.55
2022-08-21T15:02:13.954Z,3.15
2022-08-21T15:04:42.795Z,3.58
2022-08-21T15:07:10.609Z,3.60
2022-08-21T15:09:38.585Z,3.60
2022-08-21T15:12:08.384Z,3.47
2022-08-21T15:14:39.382Z,4.53
2022-08-21T15:17:11.120Z,4.25
2022-08-21T15:19:39.158Z,4.22
2022-08-21T15:22:06.828Z,4.07
2022-08-21T15:24:46.494Z,4.32
2022-08-21T15:27:16.813Z,3.97
2022-08-21T15:29:45.294Z,4.18
2022-08-21T15:32:27.207Z,4.40
2022-08-21T15:34:56.448Z,4.30
2022-08-21T15:37:25.666Z,4.97
2022-08-21T15:39:54.283Z,7.00
2022-08-21T15:42:23.629Z,5.00
2022-08-21T15:44:52.665Z,4.28
2022-08-21T15:47:32.274Z,4.63
2022-08-21T15:50:00.245Z,4.50
2022-08-21T15:52:28.338Z,4.68
2022-08-21T15:54:56.051Z,4.43
2022-08-21T15:57:25.939Z,4.82
2022-08-21T15:59:59.786Z,4.63
2022-08-21T16:02:33.320Z,4.88
2022-08-21T16:05:01.145Z,4.80
2022-08-21T16:07:29.268Z,4.97
2022-08-21T16:09:57.260Z,4.85
2022-08-21T16:12:29.335Z,4.80
2022-08-21T16:14:58.443Z,4.88
2022-08-21T16:17:31.923Z,4.63
2022-08-21T16:20:02.823Z,4.60
2022-08-21T16:22:44.597Z,4.90
2022-08-21T16:25:18.879Z,4.75
2022-08-21T16:27:50.536Z,4.38
2022-08-21T16:30:20.975Z,5.20
2022-08-21T16:32:49.303Z,4.70
2022-08-21T16:35:20.507Z,4.60
2022-08-21T16:37:52.796Z,5.20
2022-08-21T16:40:26.628Z,5.00
2022-08-21T16:42:55.611Z,5.00
2022-08-21T16:45:23.506Z,4.60
2022-08-21T16:47:51.630Z,5.00
2022-08-21T16:50:24.698Z,5.10
2022-08-21T16:52:52.950Z,5.10
2022-08-21T16:55:21.088Z,5.40
2022-08-21T16:57:48.998Z,5.07
2022-08-21T17:00:16.994Z,5.47
2022-08-21T17:02:53.685Z,5.05
2022-08-21T17:05:22.159Z,5.78
2022-08-21T17:07:50.201Z,5.72
2022-08-21T17:10:19.169Z,5.47
2022-08-21T17:12:55.920Z,5.70
2022-08-21T17:15:36.219Z,6.03
2022-08-21T17:18:07.690Z,5.60
2022-08-21T17:20:35.688Z,6.00
2022-08-21T17:23:03.643Z,5.75
2022-08-21T17:25:31.704Z,5.97
2022-08-21T17:28:00.471Z,5.72
2022-08-21T17:30:28.886Z,5.72
2022-08-21T17:32:59.979Z,5.95
2022-08-21T17:35:28.148Z,6.15
2022-08-21T17:37:57.036Z,5.95
2022-08-21T17:40:25.415Z,5.93
2022-08-21T17:42:53.320Z,5.93
2022-08-21T17:45:21.453Z,6.13
2022-08-21T17:47:49.271Z,6.60
2022-08-21T17:50:22.648Z,5.63
2022-08-21T17:52:51.055Z,6.47
2022-08-21T17:55:20.401Z,6.03
2022-08-21T17:57:50.811Z,6.25
2022-08-21T18:00:20.173Z,6.50
2022-08-21T18:02:51.239Z,6.80
2022-08-21T18:05:20.277Z,6.30
2022-08-21T18:07:48.199Z,7.28
2022-08-21T18:10:16.141Z,6.95
2022-08-21T18:12:45.348Z,7.40
2022-08-21T18:15:15.550Z,7.55
2022-08-21T18:17:46.799Z,7.75
2022-08-21T18:20:16.004Z,8.13
2022-08-21T18:22:45.683Z,7.85
2022-08-21T18:25:14.105Z,7.72
2022-08-21T18:27:45.627Z,7.13
2022-08-21T18:30:16.914Z,7.40
2022-08-21T18:32:45.450Z,8.48
2022-08-21T18:35:15.434Z,8.10
2022-08-21T18:37:44.212Z,12.07
2022-08-21T18:40:13.006Z,8.25
2022-08-21T18:42:47.882Z,8.63
2022-08-21T18:45:24.559Z,8.40
2022-08-21T18:47:55.553Z,8.70
2022-08-21T18:50:26.642Z,8.25
2022-08-21T18:52:54.841Z,9.05
2022-08-21T18:55:24.657Z,9.00
2022-08-21T18:57:54.580Z,8.38
2022-08-21T19:00:28.862Z,9.75
2022-08-21T19:02:56.980Z,10.57
2022-08-21T19:05:25.564Z,10.00
2022-08-21T19:07:55.370Z,11.23
2022-08-21T19:10:27.951Z,11.32
2022-08-21T19:13:01.447Z,11.85
2022-08-21T19:15:30.085Z,12.15
2022-08-21T19:17:59.101Z,12.63
2022-08-21T19:20:35.020Z,12.95
2022-08-21T19:23:06.580Z,12.63
2022-08-21T19:25:37.093Z,12.52
2022-08-21T19:28:12.211Z,23.42
2022-08-21T19:30:45.775Z,12.98
2022-08-21T19:33:37.955Z,12.38
2022-08-21T19:36:09.535Z,13.23
2022-08-21T19:38:38.563Z,12.85
2022-08-21T19:41:10.277Z,13.32
2022-08-21T19:44:02.771Z,13.52
2022-08-21T19:46:33.660Z,13.70
2022-08-21T19:49:05.718Z,13.57
2022-08-21T19:51:53.862Z,13.60
2022-08-21T19:54:25.750Z,12.75
2022-08-21T19:56:57.196Z,13.32
2022-08-21T19:59:28.085Z,12.50
2022-08-21T20:01:56.436Z,12.88
2022-08-21T20:04:24.401Z,12.15
2022-08-21T20:06:55.393Z,11.90
2022-08-21T20:09:23.204Z,11.77
2022-08-21T20:11:55.721Z,12.43
2022-08-21T20:14:30.475Z,12.65
2022-08-21T20:17:10.458Z,12.13
2022-08-21T20:19:43.102Z,11.88
2022-08-21T20:22:12.143Z,12.55
2022-08-21T20:24:42.067Z,11.55
2022-08-21T20:27:16.456Z,10.90
2022-08-21T20:32:12.471Z,11.32
2022-08-21T20:34:41.168Z,11.02
2022-08-21T20:37:13.399Z,10.60
2022-08-21T20:40:01.173Z,10.80
2022-08-21T20:42:29.277Z,9.98
2022-08-21T20:44:56.960Z,10.98
2022-08-21T20:47:24.672Z,10.10
2022-08-21T20:50:00.622Z,10.10
2022-08-21T20:52:34.814Z,9.73
2022-08-21T20:55:10.923Z,10.07
2022-08-21T20:58:00.437Z,9.98
2022-08-21T21:00:32.762Z,9.77
2022-08-21T21:03:30.137Z,10.77
2022-08-21T21:06:15.897Z,11.10
2022-08-21T21:08:58.022Z,10.65
2022-08-21T21:11:44.150Z,10.35
2022-08-21T21:14:22.602Z,9.82
2022-08-21T21:16:58.713Z,10.93
2022-08-21T21:19:53.949Z,10.50
2022-08-21T21:22:28.870Z,12.40
2022-08-21T21:25:16.576Z,11.27
2022-08-21T21:28:01.065Z,10.27
2022-08-21T21:30:41.582Z,10.40
2022-08-21T21:33:16.618Z,11.10
2022-08-21T21:35:49.223Z,11.20
2022-08-21T21:38:28.263Z,10.93
2022-08-21T21:41:27.593Z,10.95
2022-08-21T21:44:18.283Z,11.43
2022-08-21T21:47:21.180Z,11.23
2022-08-21T21:50:18.707Z,11.00
2022-08-21T21:53:21.247Z,12.63
2022-08-21T21:56:23.219Z,11.77
2022-08-21T21:59:19.160Z,13.18
2022-08-21T22:01:54.039Z,11.90
2022-08-21T22:04:50.857Z,11.48
2022-08-21T22:07:34.272Z,17.00
2022-08-21T22:10:19.657Z,11.43
2022-08-21T22:12:56.397Z,11.50
2022-08-21T22:15:37.640Z,11.70
2022-08-21T22:18:16.952Z,11.63
2022-08-21T22:21:08.823Z,12.25
2022-08-21T22:23:46.883Z,12.20
2022-08-21T22:26:22.371Z,11.77
2022-08-21T22:28:53.303Z,12.20
2022-08-21T22:31:28.202Z,12.50
2022-08-21T22:34:19.560Z,11.90
2022-08-21T22:36:59.360Z,12.50
2022-08-21T22:42:25.235Z,11.65
2022-08-21T22:44:57.857Z,12.43
2022-08-21T22:47:48.376Z,13.02
2022-08-21T22:50:32.474Z,12.45
2022-08-21T22:53:04.842Z,12.48
2022-08-21T22:55:43.890Z,11.73
2022-08-21T22:58:21.090Z,12.02
2022-08-21T23:01:09.650Z,12.88
2022-08-21T23:03:50.969Z,12.65
2022-08-21T23:06:44.999Z,12.73
2022-08-21T23:09:30.346Z,12.05
2022-08-21T23:14:54.704Z,11.98
2022-08-21T23:17:36.764Z,12.02
2022-08-21T23:20:33.290Z,11.98
2022-08-21T23:23:26.884Z,12.60
2022-08-21T23:26:28.572Z,12.77
2022-08-21T23:29:25.870Z,11.82
2022-08-21T23:32:01.619Z,11.85
2022-08-21T23:34:58.697Z,12.18
2022-08-21T23:37:51.619Z,11.98
2022-08-21T23:40:51.604Z,12.30
2022-08-21T23:43:29.150Z,11.70
2022-08-21T23:46:32.448Z,12.50
2022-08-21T23:49:35.749Z,12.90
2022-08-21T23:52:35.963Z,12.63
2022-08-21T23:55:03.580Z,12.88
2022-08-21T23:58:03.495Z,13.32
